Terminal Aerodrome Forecast
Issued by NWS Northern Indiana

Home | Current Version | Previous Version | Text Only | Print | Product List | Glossary Off
Versions: 1 2 3 4 5 6 7 8 9 10 11 12 13 14

813
FTUS43 KIWX 242320
TAFFWA
TAF
KFWA 242320Z 2500/2524 28009KT P6SM SCT060
     FM250800 24006KT P6SM FEW200
     FM251400 28012G22KT P6SM SCT040=

USA.gov is the U.S. government's official web portal to all federal, state and local government web resources and services.